sensor_id;sensor_type;location;lat;lon;timestamp;temperature;humidity
51878;SHT31;37911;51.526;11.536;2023-07-09T00:01:01;19.11;61.47
51878;SHT31;37911;51.526;11.536;2023-07-09T00:04:04;18.91;62.02
51878;SHT31;37911;51.526;11.536;2023-07-09T00:07:18;18.93;61.83
51878;SHT31;37911;51.526;11.536;2023-07-09T00:10:21;18.87;62.14
51878;SHT31;37911;51.526;11.536;2023-07-09T00:13:26;18.88;62.04
51878;SHT31;37911;51.526;11.536;2023-07-09T00:16:30;18.94;61.82
51878;SHT31;37911;51.526;11.536;2023-07-09T00:19:33;18.94;61.52
51878;SHT31;37911;51.526;11.536;2023-07-09T00:22:39;18.94;61.40
51878;SHT31;37911;51.526;11.536;2023-07-09T00:25:52;18.97;61.23
51878;SHT31;37911;51.526;11.536;2023-07-09T00:28:55;18.96;61.39
51878;SHT31;37911;51.526;11.536;2023-07-09T00:31:58;19.01;60.89
51878;SHT31;37911;51.526;11.536;2023-07-09T00:35:02;18.93;61.27
51878;SHT31;37911;51.526;11.536;2023-07-09T00:38:17;19.00;61.14
51878;SHT31;37911;51.526;11.536;2023-07-09T00:41:23;18.88;61.98
51878;SHT31;37911;51.526;11.536;2023-07-09T00:44:28;18.78;62.20
51878;SHT31;37911;51.526;11.536;2023-07-09T00:47:39;18.71;62.40
51878;SHT31;37911;51.526;11.536;2023-07-09T00:50:49;18.59;62.81
51878;SHT31;37911;51.526;11.536;2023-07-09T00:53:58;18.56;62.92
51878;SHT31;37911;51.526;11.536;2023-07-09T00:57:12;18.52;62.97
51878;SHT31;37911;51.526;11.536;2023-07-09T01:00:17;18.36;63.47
51878;SHT31;37911;51.526;11.536;2023-07-09T01:03:25;18.29;63.53
51878;SHT31;37911;51.526;11.536;2023-07-09T01:06:33;18.42;63.00
51878;SHT31;37911;51.526;11.536;2023-07-09T01:09:39;18.32;63.36
51878;SHT31;37911;51.526;11.536;2023-07-09T01:12:44;18.29;63.32
51878;SHT31;37911;51.526;11.536;2023-07-09T01:15:47;18.33;63.22
51878;SHT31;37911;51.526;11.536;2023-07-09T01:18:51;18.25;63.66
51878;SHT31;37911;51.526;11.536;2023-07-09T01:21:59;18.09;64.04
51878;SHT31;37911;51.526;11.536;2023-07-09T01:25:05;18.08;64.30
51878;SHT31;37911;51.526;11.536;2023-07-09T01:28:10;18.01;64.58
51878;SHT31;37911;51.526;11.536;2023-07-09T01:31:15;17.99;64.50
51878;SHT31;37911;51.526;11.536;2023-07-09T01:34:18;18.05;64.46
51878;SHT31;37911;51.526;11.536;2023-07-09T01:37:27;17.95;64.84
51878;SHT31;37911;51.526;11.536;2023-07-09T01:40:30;17.92;64.62
51878;SHT31;37911;51.526;11.536;2023-07-09T01:43:34;17.85;65.05
51878;SHT31;37911;51.526;11.536;2023-07-09T01:46:38;17.79;64.96
51878;SHT31;37911;51.526;11.536;2023-07-09T01:49:42;17.82;65.08
51878;SHT31;37911;51.526;11.536;2023-07-09T01:52:49;17.88;64.76
51878;SHT31;37911;51.526;11.536;2023-07-09T01:55:52;17.81;65.08
51878;SHT31;37911;51.526;11.536;2023-07-09T01:58:57;17.85;64.99
51878;SHT31;37911;51.526;11.536;2023-07-09T02:02:02;17.89;64.79
51878;SHT31;37911;51.526;11.536;2023-07-09T02:05:05;17.96;64.78
51878;SHT31;37911;51.526;11.536;2023-07-09T02:08:16;17.71;65.38
51878;SHT31;37911;51.526;11.536;2023-07-09T02:11:19;17.68;65.59
51878;SHT31;37911;51.526;11.536;2023-07-09T02:14:23;17.65;65.69
51878;SHT31;37911;51.526;11.536;2023-07-09T02:17:26;17.62;65.73
51878;SHT31;37911;51.526;11.536;2023-07-09T02:20:30;17.61;65.71
51878;SHT31;37911;51.526;11.536;2023-07-09T02:23:36;17.65;65.63
51878;SHT31;37911;51.526;11.536;2023-07-09T02:26:39;17.64;65.72
51878;SHT31;37911;51.526;11.536;2023-07-09T02:29:42;17.64;65.68
51878;SHT31;37911;51.526;11.536;2023-07-09T02:32:46;17.65;65.65
51878;SHT31;37911;51.526;11.536;2023-07-09T02:35:51;17.50;65.83
51878;SHT31;37911;51.526;11.536;2023-07-09T02:38:57;17.58;65.86
51878;SHT31;37911;51.526;11.536;2023-07-09T02:42:00;17.47;65.96
51878;SHT31;37911;51.526;11.536;2023-07-09T02:45:05;17.52;66.22
51878;SHT31;37911;51.526;11.536;2023-07-09T02:48:09;17.50;66.25
51878;SHT31;37911;51.526;11.536;2023-07-09T02:51:14;17.44;66.45
51878;SHT31;37911;51.526;11.536;2023-07-09T02:54:20;17.41;66.72
51878;SHT31;37911;51.526;11.536;2023-07-09T02:57:24;17.57;66.34
51878;SHT31;37911;51.526;11.536;2023-07-09T03:00:27;17.64;66.02
51878;SHT31;37911;51.526;11.536;2023-07-09T03:03:31;17.67;65.68
51878;SHT31;37911;51.526;11.536;2023-07-09T03:06:35;17.51;66.17
51878;SHT31;37911;51.526;11.536;2023-07-09T03:09:42;17.35;66.50
51878;SHT31;37911;51.526;11.536;2023-07-09T03:12:46;17.28;66.96
51878;SHT31;37911;51.526;11.536;2023-07-09T03:15:55;17.10;67.53
51878;SHT31;37911;51.526;11.536;2023-07-09T03:19:00;17.11;67.43
51878;SHT31;37911;51.526;11.536;2023-07-09T03:22:04;17.11;67.30
51878;SHT31;37911;51.526;11.536;2023-07-09T03:25:10;16.97;67.84
51878;SHT31;37911;51.526;11.536;2023-07-09T03:28:14;16.97;67.97
51878;SHT31;37911;51.526;11.536;2023-07-09T03:31:17;17.00;67.84
51878;SHT31;37911;51.526;11.536;2023-07-09T03:34:21;17.08;67.70
51878;SHT31;37911;51.526;11.536;2023-07-09T03:37:24;17.10;67.42
51878;SHT31;37911;51.526;11.536;2023-07-09T03:40:30;17.13;67.61
51878;SHT31;37911;51.526;11.536;2023-07-09T03:43:34;16.99;68.01
51878;SHT31;37911;51.526;11.536;2023-07-09T03:46:37;17.10;67.72
51878;SHT31;37911;51.526;11.536;2023-07-09T03:49:41;17.10;67.72
51878;SHT31;37911;51.526;11.536;2023-07-09T03:52:44;17.13;67.71
51878;SHT31;37911;51.526;11.536;2023-07-09T03:55:54;16.96;68.29
51878;SHT31;37911;51.526;11.536;2023-07-09T03:59:00;16.99;68.38
51878;SHT31;37911;51.526;11.536;2023-07-09T04:02:04;17.13;67.81
51878;SHT31;37911;51.526;11.536;2023-07-09T04:05:08;17.26;67.47
51878;SHT31;37911;51.526;11.536;2023-07-09T04:08:11;17.31;67.35
51878;SHT31;37911;51.526;11.536;2023-07-09T04:11:17;17.28;67.35
51878;SHT31;37911;51.526;11.536;2023-07-09T04:14:20;17.31;67.50
51878;SHT31;37911;51.526;11.536;2023-07-09T04:17:24;17.35;67.27
51878;SHT31;37911;51.526;11.536;2023-07-09T04:20:27;17.47;67.21
51878;SHT31;37911;51.526;11.536;2023-07-09T04:23:31;17.54;66.74
51878;SHT31;37911;51.526;11.536;2023-07-09T04:26:37;17.57;66.71
51878;SHT31;37911;51.526;11.536;2023-07-09T04:29:40;17.62;66.59
51878;SHT31;37911;51.526;11.536;2023-07-09T04:32:44;17.74;66.41
51878;SHT31;37911;51.526;11.536;2023-07-09T04:35:48;17.82;66.57
51878;SHT31;37911;51.526;11.536;2023-07-09T04:38:51;17.96;66.27
51878;SHT31;37911;51.526;11.536;2023-07-09T04:41:57;17.99;66.01
51878;SHT31;37911;51.526;11.536;2023-07-09T04:45:00;18.06;65.85
51878;SHT31;37911;51.526;11.536;2023-07-09T04:48:05;18.13;65.61
51878;SHT31;37911;51.526;11.536;2023-07-09T04:51:08;18.17;65.71
51878;SHT31;37911;51.526;11.536;2023-07-09T04:54:12;18.30;65.42
51878;SHT31;37911;51.526;11.536;2023-07-09T04:57:19;18.42;65.06
51878;SHT31;37911;51.526;11.536;2023-07-09T05:00:22;18.47;65.67
51878;SHT31;37911;51.526;11.536;2023-07-09T05:03:26;18.61;64.90
51878;SHT31;37911;51.526;11.536;2023-07-09T05:06:29;18.83;64.47
51878;SHT31;37911;51.526;11.536;2023-07-09T05:09:33;18.98;63.98
51878;SHT31;37911;51.526;11.536;2023-07-09T05:12:47;19.07;64.01
51878;SHT31;37911;51.526;11.536;2023-07-09T05:15:51;19.14;63.44
51878;SHT31;37911;51.526;11.536;2023-07-09T05:18:54;19.36;63.21
51878;SHT31;37911;51.526;11.536;2023-07-09T05:21:58;19.55;63.29
51878;SHT31;37911;51.526;11.536;2023-07-09T05:25:01;19.70;62.70
51878;SHT31;37911;51.526;11.536;2023-07-09T05:28:07;19.93;61.88
51878;SHT31;37911;51.526;11.536;2023-07-09T05:31:11;20.08;61.25
51878;SHT31;37911;51.526;11.536;2023-07-09T05:34:14;20.27;61.16
51878;SHT31;37911;51.526;11.536;2023-07-09T05:37:20;20.51;61.22
51878;SHT31;37911;51.526;11.536;2023-07-09T05:40:23;20.77;60.28
51878;SHT31;37911;51.526;11.536;2023-07-09T05:43:29;21.05;58.96
51878;SHT31;37911;51.526;11.536;2023-07-09T05:46:36;21.29;56.06
51878;SHT31;37911;51.526;11.536;2023-07-09T05:49:39;21.65;54.87
51878;SHT31;37911;51.526;11.536;2023-07-09T05:52:43;21.99;53.24
51878;SHT31;37911;51.526;11.536;2023-07-09T05:55:46;22.24;50.81
51878;SHT31;37911;51.526;11.536;2023-07-09T05:58:52;22.51;51.33
51878;SHT31;37911;51.526;11.536;2023-07-09T06:01:56;22.84;50.27
51878;SHT31;37911;51.526;11.536;2023-07-09T06:05:01;23.25;49.40
51878;SHT31;37911;51.526;11.536;2023-07-09T06:08:04;23.45;48.08
51878;SHT31;37911;51.526;11.536;2023-07-09T06:11:08;23.79;48.30
51878;SHT31;37911;51.526;11.536;2023-07-09T06:14:14;24.06;46.51
51878;SHT31;37911;51.526;11.536;2023-07-09T06:17:19;24.31;46.53
51878;SHT31;37911;51.526;11.536;2023-07-09T06:20:22;24.54;45.14
51878;SHT31;37911;51.526;11.536;2023-07-09T06:23:26;24.74;44.36
51878;SHT31;37911;51.526;11.536;2023-07-09T06:26:29;24.96;44.79
51878;SHT31;37911;51.526;11.536;2023-07-09T06:29:35;25.30;43.58
51878;SHT31;37911;51.526;11.536;2023-07-09T06:32:38;25.57;43.15
51878;SHT31;37911;51.526;11.536;2023-07-09T06:35:46;25.62;43.40
51878;SHT31;37911;51.526;11.536;2023-07-09T06:38:50;25.83;43.61
51878;SHT31;37911;51.526;11.536;2023-07-09T06:41:53;26.18;42.19
51878;SHT31;37911;51.526;11.536;2023-07-09T06:45:19;26.38;42.14
51878;SHT31;37911;51.526;11.536;2023-07-09T06:48:24;26.58;41.95
51878;SHT31;37911;51.526;11.536;2023-07-09T06:51:28;26.72;41.73
51878;SHT31;37911;51.526;11.536;2023-07-09T06:54:31;27.10;41.90
51878;SHT31;37911;51.526;11.536;2023-07-09T06:57:34;27.49;40.98
51878;SHT31;37911;51.526;11.536;2023-07-09T07:00:40;27.50;40.42
51878;SHT31;37911;51.526;11.536;2023-07-09T07:03:43;27.93;39.69
51878;SHT31;37911;51.526;11.536;2023-07-09T07:06:47;27.90;39.88
51878;SHT31;37911;51.526;11.536;2023-07-09T07:09:50;28.31;40.08
51878;SHT31;37911;51.526;11.536;2023-07-09T07:12:54;28.21;39.05
51878;SHT31;37911;51.526;11.536;2023-07-09T07:16:00;28.72;38.73
51878;SHT31;37911;51.526;11.536;2023-07-09T07:19:03;29.16;38.88
51878;SHT31;37911;51.526;11.536;2023-07-09T07:22:07;29.27;38.04
51878;SHT31;37911;51.526;11.536;2023-07-09T07:25:10;29.43;38.80
51878;SHT31;37911;51.526;11.536;2023-07-09T07:28:15;29.88;37.36
51878;SHT31;37911;51.526;11.536;2023-07-09T07:31:21;30.02;37.51
51878;SHT31;37911;51.526;11.536;2023-07-09T07:34:24;29.95;36.19
51878;SHT31;37911;51.526;11.536;2023-07-09T07:37:28;30.11;36.63
51878;SHT31;37911;51.526;11.536;2023-07-09T07:40:32;30.12;35.18
51878;SHT31;37911;51.526;11.536;2023-07-09T07:43:35;30.36;35.13
51878;SHT31;37911;51.526;11.536;2023-07-09T07:46:41;30.79;33.97
51878;SHT31;37911;51.526;11.536;2023-07-09T07:49:45;30.94;35.22
51878;SHT31;37911;51.526;11.536;2023-07-09T07:52:48;31.37;33.96
51878;SHT31;37911;51.526;11.536;2023-07-09T07:55:52;31.63;32.86
51878;SHT31;37911;51.526;11.536;2023-07-09T07:58:55;31.75;33.16
51878;SHT31;37911;51.526;11.536;2023-07-09T08:02:02;32.40;32.47
51878;SHT31;37911;51.526;11.536;2023-07-09T08:05:06;32.11;32.59
51878;SHT31;37911;51.526;11.536;2023-07-09T08:08:10;32.45;32.82
51878;SHT31;37911;51.526;11.536;2023-07-09T08:11:14;32.56;32.55
51878;SHT31;37911;51.526;11.536;2023-07-09T08:14:17;32.66;32.69
51878;SHT31;37911;51.526;11.536;2023-07-09T08:17:23;33.06;31.93
51878;SHT31;37911;51.526;11.536;2023-07-09T08:20:27;33.10;31.82
51878;SHT31;37911;51.526;11.536;2023-07-09T08:23:30;33.19;31.88
51878;SHT31;37911;51.526;11.536;2023-07-09T08:26:34;33.37;30.81
51878;SHT31;37911;51.526;11.536;2023-07-09T08:29:38;33.64;31.26
51878;SHT31;37911;51.526;11.536;2023-07-09T08:32:45;33.55;31.35
51878;SHT31;37911;51.526;11.536;2023-07-09T08:35:49;33.81;31.31
51878;SHT31;37911;51.526;11.536;2023-07-09T08:38:53;34.16;30.28
51878;SHT31;37911;51.526;11.536;2023-07-09T08:41:59;34.01;30.39
51878;SHT31;37911;51.526;11.536;2023-07-09T08:45:16;34.06;29.87
51878;SHT31;37911;51.526;11.536;2023-07-09T08:48:29;34.36;30.03
51878;SHT31;37911;51.526;11.536;2023-07-09T08:51:37;34.70;30.11
51878;SHT31;37911;51.526;11.536;2023-07-09T08:54:41;34.63;28.96
51878;SHT31;37911;51.526;11.536;2023-07-09T08:57:47;34.53;28.87
51878;SHT31;37911;51.526;11.536;2023-07-09T09:00:53;34.67;29.29
51878;SHT31;37911;51.526;11.536;2023-07-09T09:04:03;35.04;29.04
51878;SHT31;37911;51.526;11.536;2023-07-09T09:07:16;34.78;28.46
51878;SHT31;37911;51.526;11.536;2023-07-09T09:10:29;35.14;28.13
51878;SHT31;37911;51.526;11.536;2023-07-09T09:13:36;34.99;28.19
51878;SHT31;37911;51.526;11.536;2023-07-09T09:16:44;35.46;28.12
51878;SHT31;37911;51.526;11.536;2023-07-09T09:19:54;35.58;27.87
51878;SHT31;37911;51.526;11.536;2023-07-09T09:23:04;35.61;26.70
51878;SHT31;37911;51.526;11.536;2023-07-09T09:26:17;35.91;28.46
51878;SHT31;37911;51.526;11.536;2023-07-09T09:29:24;36.11;25.99
51878;SHT31;37911;51.526;11.536;2023-07-09T09:32:29;36.79;25.88
51878;SHT31;37911;51.526;11.536;2023-07-09T09:35:38;36.51;25.81
51878;SHT31;37911;51.526;11.536;2023-07-09T09:38:42;35.80;25.61
51878;SHT31;37911;51.526;11.536;2023-07-09T09:41:47;36.14;25.24
51878;SHT31;37911;51.526;11.536;2023-07-09T09:44:50;35.76;24.53
51878;SHT31;37911;51.526;11.536;2023-07-09T09:47:59;36.11;24.80
51878;SHT31;37911;51.526;11.536;2023-07-09T09:51:05;36.27;25.42
51878;SHT31;37911;51.526;11.536;2023-07-09T09:54:15;36.32;24.65
51878;SHT31;37911;51.526;11.536;2023-07-09T09:57:21;35.88;25.18
51878;SHT31;37911;51.526;11.536;2023-07-09T10:00:26;36.45;24.63
51878;SHT31;37911;51.526;11.536;2023-07-09T10:03:34;36.28;23.84
51878;SHT31;37911;51.526;11.536;2023-07-09T10:06:42;36.35;23.31
51878;SHT31;37911;51.526;11.536;2023-07-09T10:09:49;36.66;22.58
51878;SHT31;37911;51.526;11.536;2023-07-09T10:12:56;36.55;23.11
51878;SHT31;37911;51.526;11.536;2023-07-09T10:16:06;37.13;22.70
51878;SHT31;37911;51.526;11.536;2023-07-09T10:19:16;36.92;22.57
51878;SHT31;37911;51.526;11.536;2023-07-09T10:22:50;37.13;23.05
51878;SHT31;37911;51.526;11.536;2023-07-09T10:25:58;37.43;21.86
51878;SHT31;37911;51.526;11.536;2023-07-09T10:29:21;37.54;21.67
51878;SHT31;37911;51.526;11.536;2023-07-09T10:32:37;37.27;21.02
51878;SHT31;37911;51.526;11.536;2023-07-09T10:35:49;38.14;22.08
51878;SHT31;37911;51.526;11.536;2023-07-09T10:39:01;38.09;21.07
51878;SHT31;37911;51.526;11.536;2023-07-09T10:42:13;38.01;20.96
51878;SHT31;37911;51.526;11.536;2023-07-09T10:45:23;38.32;22.35
51878;SHT31;37911;51.526;11.536;2023-07-09T10:48:34;38.25;20.23
51878;SHT31;37911;51.526;11.536;2023-07-09T10:51:40;37.55;21.32
51878;SHT31;37911;51.526;11.536;2023-07-09T10:54:55;37.53;21.02
51878;SHT31;37911;51.526;11.536;2023-07-09T10:58:05;37.40;21.40
51878;SHT31;37911;51.526;11.536;2023-07-09T11:01:15;37.34;21.81
51878;SHT31;37911;51.526;11.536;2023-07-09T11:04:28;37.68;20.97
51878;SHT31;37911;51.526;11.536;2023-07-09T11:07:35;38.18;20.74
51878;SHT31;37911;51.526;11.536;2023-07-09T11:10:49;38.31;20.08
51878;SHT31;37911;51.526;11.536;2023-07-09T11:13:55;38.24;20.71
51878;SHT31;37911;51.526;11.536;2023-07-09T11:17:01;38.07;20.50
51878;SHT31;37911;51.526;11.536;2023-07-09T11:20:14;37.80;22.13
51878;SHT31;37911;51.526;11.536;2023-07-09T11:23:22;37.55;21.04
51878;SHT31;37911;51.526;11.536;2023-07-09T11:26:30;37.67;20.74
51878;SHT31;37911;51.526;11.536;2023-07-09T11:29:45;38.46;21.52
51878;SHT31;37911;51.526;11.536;2023-07-09T11:32:53;39.14;21.03
51878;SHT31;37911;51.526;11.536;2023-07-09T11:36:07;38.40;20.24
51878;SHT31;37911;51.526;11.536;2023-07-09T11:39:19;37.89;20.15
51878;SHT31;37911;51.526;11.536;2023-07-09T11:42:28;37.89;21.55
51878;SHT31;37911;51.526;11.536;2023-07-09T11:45:33;38.02;20.01
51878;SHT31;37911;51.526;11.536;2023-07-09T11:48:37;38.49;21.01
51878;SHT31;37911;51.526;11.536;2023-07-09T11:51:45;37.73;21.02
51878;SHT31;37911;51.526;11.536;2023-07-09T11:54:50;37.16;21.13
51878;SHT31;37911;51.526;11.536;2023-07-09T11:58:00;37.31;21.06
51878;SHT31;37911;51.526;11.536;2023-07-09T12:01:14;37.31;21.81
51878;SHT31;37911;51.526;11.536;2023-07-09T12:04:25;37.04;21.79
51878;SHT31;37911;51.526;11.536;2023-07-09T12:07:30;36.68;22.63
51878;SHT31;37911;51.526;11.536;2023-07-09T12:10:35;35.87;23.56
51878;SHT31;37911;51.526;11.536;2023-07-09T12:13:41;35.95;23.12
51878;SHT31;37911;51.526;11.536;2023-07-09T12:16:46;36.69;22.83
51878;SHT31;37911;51.526;11.536;2023-07-09T12:19:51;37.30;21.84
51878;SHT31;37911;51.526;11.536;2023-07-09T12:22:54;37.27;22.76
51878;SHT31;37911;51.526;11.536;2023-07-09T12:26:00;37.34;21.75
51878;SHT31;37911;51.526;11.536;2023-07-09T12:29:09;37.57;21.49
51878;SHT31;37911;51.526;11.536;2023-07-09T12:32:15;37.30;21.70
51878;SHT31;37911;51.526;11.536;2023-07-09T12:35:19;37.57;22.50
51878;SHT31;37911;51.526;11.536;2023-07-09T12:38:24;38.18;21.78
51878;SHT31;37911;51.526;11.536;2023-07-09T12:41:32;38.70;21.73
51878;SHT31;37911;51.526;11.536;2023-07-09T12:44:39;38.48;21.15
51878;SHT31;37911;51.526;11.536;2023-07-09T12:47:43;38.63;21.79
51878;SHT31;37911;51.526;11.536;2023-07-09T12:50:49;38.84;21.63
51878;SHT31;37911;51.526;11.536;2023-07-09T12:54:03;38.82;20.82
51878;SHT31;37911;51.526;11.536;2023-07-09T12:57:13;38.31;21.73
51878;SHT31;37911;51.526;11.536;2023-07-09T13:00:21;38.28;21.57
51878;SHT31;37911;51.526;11.536;2023-07-09T13:03:27;37.75;21.86
51878;SHT31;37911;51.526;11.536;2023-07-09T13:06:36;38.44;21.40
51878;SHT31;37911;51.526;11.536;2023-07-09T13:09:47;38.83;20.60
51878;SHT31;37911;51.526;11.536;2023-07-09T13:12:53;38.89;20.21
51878;SHT31;37911;51.526;11.536;2023-07-09T13:16:01;38.65;21.67
51878;SHT31;37911;51.526;11.536;2023-07-09T13:19:05;39.03;21.81
51878;SHT31;37911;51.526;11.536;2023-07-09T13:22:11;38.87;20.82
51878;SHT31;37911;51.526;11.536;2023-07-09T13:25:17;38.96;21.49
51878;SHT31;37911;51.526;11.536;2023-07-09T13:28:23;39.27;20.99
51878;SHT31;37911;51.526;11.536;2023-07-09T13:31:29;39.02;20.30
51878;SHT31;37911;51.526;11.536;2023-07-09T13:34:34;38.80;20.55
51878;SHT31;37911;51.526;11.536;2023-07-09T13:37:39;38.49;21.41
51878;SHT31;37911;51.526;11.536;2023-07-09T13:40:43;38.75;21.40
51878;SHT31;37911;51.526;11.536;2023-07-09T13:43:48;38.32;20.93
51878;SHT31;37911;51.526;11.536;2023-07-09T13:46:55;38.63;21.35
51878;SHT31;37911;51.526;11.536;2023-07-09T13:49:58;38.89;21.71
51878;SHT31;37911;51.526;11.536;2023-07-09T13:53:02;39.29;21.10
51878;SHT31;37911;51.526;11.536;2023-07-09T13:56:05;39.44;20.85
51878;SHT31;37911;51.526;11.536;2023-07-09T13:59:13;39.39;20.46
51878;SHT31;37911;51.526;11.536;2023-07-09T14:02:25;39.36;21.28
51878;SHT31;37911;51.526;11.536;2023-07-09T14:05:32;39.21;20.96
51878;SHT31;37911;51.526;11.536;2023-07-09T14:08:35;39.24;20.58
51878;SHT31;37911;51.526;11.536;2023-07-09T14:11:43;39.53;20.58
51878;SHT31;37911;51.526;11.536;2023-07-09T14:14:49;39.24;20.24
51878;SHT31;37911;51.526;11.536;2023-07-09T14:17:55;39.10;21.40
51878;SHT31;37911;51.526;11.536;2023-07-09T14:20:59;39.11;20.86
51878;SHT31;37911;51.526;11.536;2023-07-09T14:24:16;38.90;20.70
51878;SHT31;37911;51.526;11.536;2023-07-09T14:27:20;38.79;21.69
51878;SHT31;37911;51.526;11.536;2023-07-09T14:30:24;38.93;20.96
51878;SHT31;37911;51.526;11.536;2023-07-09T14:33:31;38.31;20.73
51878;SHT31;37911;51.526;11.536;2023-07-09T14:36:34;38.02;21.17
51878;SHT31;37911;51.526;11.536;2023-07-09T14:39:39;37.94;21.41
51878;SHT31;37911;51.526;11.536;2023-07-09T14:42:43;37.63;20.98
51878;SHT31;37911;51.526;11.536;2023-07-09T14:45:47;37.60;21.26
51878;SHT31;37911;51.526;11.536;2023-07-09T14:48:53;37.81;21.36
51878;SHT31;37911;51.526;11.536;2023-07-09T14:51:56;37.48;21.60
51878;SHT31;37911;51.526;11.536;2023-07-09T14:55:00;37.19;21.99
51878;SHT31;37911;51.526;11.536;2023-07-09T14:58:11;37.22;22.49
51878;SHT31;37911;51.526;11.536;2023-07-09T15:01:17;37.41;21.37
51878;SHT31;37911;51.526;11.536;2023-07-09T15:04:31;37.55;22.14
51878;SHT31;37911;51.526;11.536;2023-07-09T15:07:35;37.45;21.95
51878;SHT31;37911;51.526;11.536;2023-07-09T15:10:39;37.67;21.73
51878;SHT31;37911;51.526;11.536;2023-07-09T15:13:43;37.80;22.29
51878;SHT31;37911;51.526;11.536;2023-07-09T15:16:47;37.74;22.24
51878;SHT31;37911;51.526;11.536;2023-07-09T15:19:53;37.57;22.71
51878;SHT31;37911;51.526;11.536;2023-07-09T15:22:58;37.51;23.03
51878;SHT31;37911;51.526;11.536;2023-07-09T15:26:04;37.23;22.68
51878;SHT31;37911;51.526;11.536;2023-07-09T15:29:13;36.97;22.94
51878;SHT31;37911;51.526;11.536;2023-07-09T15:32:17;37.04;23.51
51878;SHT31;37911;51.526;11.536;2023-07-09T15:35:25;37.13;23.17
51878;SHT31;37911;51.526;11.536;2023-07-09T15:38:31;37.10;21.98
51878;SHT31;37911;51.526;11.536;2023-07-09T15:41:35;37.12;22.45
51878;SHT31;37911;51.526;11.536;2023-07-09T15:44:39;37.00;22.39
51878;SHT31;37911;51.526;11.536;2023-07-09T15:47:45;36.83;22.25
51878;SHT31;37911;51.526;11.536;2023-07-09T15:50:52;36.75;21.91
51878;SHT31;37911;51.526;11.536;2023-07-09T15:53:55;36.55;22.77
51878;SHT31;37911;51.526;11.536;2023-07-09T15:56:59;36.25;22.59
51878;SHT31;37911;51.526;11.536;2023-07-09T16:00:13;36.29;23.17
51878;SHT31;37911;51.526;11.536;2023-07-09T16:03:17;35.97;23.52
51878;SHT31;37911;51.526;11.536;2023-07-09T16:06:23;36.06;22.77
51878;SHT31;37911;51.526;11.536;2023-07-09T16:09:26;36.19;23.33
51878;SHT31;37911;51.526;11.536;2023-07-09T16:12:48;36.04;23.42
51878;SHT31;37911;51.526;11.536;2023-07-09T16:15:52;35.85;23.97
51878;SHT31;37911;51.526;11.536;2023-07-09T16:18:55;35.87;24.31
51878;SHT31;37911;51.526;11.536;2023-07-09T16:22:05;35.81;24.04
51878;SHT31;37911;51.526;11.536;2023-07-09T16:25:14;35.68;23.78
51878;SHT31;37911;51.526;11.536;2023-07-09T16:28:19;35.68;24.03
51878;SHT31;37911;51.526;11.536;2023-07-09T16:31:23;35.65;23.97
51878;SHT31;37911;51.526;11.536;2023-07-09T16:34:27;35.70;24.24
51878;SHT31;37911;51.526;11.536;2023-07-09T16:37:33;35.58;24.38
51878;SHT31;37911;51.526;11.536;2023-07-09T16:40:37;35.57;24.62
51878;SHT31;37911;51.526;11.536;2023-07-09T16:43:40;35.55;24.56
51878;SHT31;37911;51.526;11.536;2023-07-09T16:46:44;35.47;24.23
51878;SHT31;37911;51.526;11.536;2023-07-09T16:49:48;35.27;24.45
51878;SHT31;37911;51.526;11.536;2023-07-09T16:52:54;35.23;24.56
51878;SHT31;37911;51.526;11.536;2023-07-09T16:55:58;35.18;25.01
51878;SHT31;37911;51.526;11.536;2023-07-09T16:59:01;35.02;24.76
51878;SHT31;37911;51.526;11.536;2023-07-09T17:02:22;34.82;24.95
51878;SHT31;37911;51.526;11.536;2023-07-09T17:05:27;34.73;25.29
51878;SHT31;37911;51.526;11.536;2023-07-09T17:08:33;34.60;25.43
51878;SHT31;37911;51.526;11.536;2023-07-09T17:11:37;34.57;25.59
51878;SHT31;37911;51.526;11.536;2023-07-09T17:14:41;34.52;25.48
51878;SHT31;37911;51.526;11.536;2023-07-09T17:17:44;34.46;27.33
51878;SHT31;37911;51.526;11.536;2023-07-09T17:20:50;34.42;27.00
51878;SHT31;37911;51.526;11.536;2023-07-09T17:23:57;34.42;27.83
51878;SHT31;37911;51.526;11.536;2023-07-09T17:27:00;34.36;28.36
51878;SHT31;37911;51.526;11.536;2023-07-09T17:30:07;34.28;27.80
51878;SHT31;37911;51.526;11.536;2023-07-09T17:33:12;34.19;28.28
51878;SHT31;37911;51.526;11.536;2023-07-09T17:36:16;34.11;30.64
51878;SHT31;37911;51.526;11.536;2023-07-09T17:39:27;34.00;33.19
51878;SHT31;37911;51.526;11.536;2023-07-09T17:42:31;33.87;35.23
51878;SHT31;37911;51.526;11.536;2023-07-09T17:45:36;33.62;35.47
51878;SHT31;37911;51.526;11.536;2023-07-09T17:48:39;33.47;36.09
51878;SHT31;37911;51.526;11.536;2023-07-09T17:51:43;33.24;36.57
51878;SHT31;37911;51.526;11.536;2023-07-09T17:54:49;33.13;37.15
51878;SHT31;37911;51.526;11.536;2023-07-09T17:57:53;32.99;36.54
51878;SHT31;37911;51.526;11.536;2023-07-09T18:00:58;32.86;34.02
51878;SHT31;37911;51.526;11.536;2023-07-09T18:04:02;32.80;34.36
51878;SHT31;37911;51.526;11.536;2023-07-09T18:07:16;32.69;33.26
51878;SHT31;37911;51.526;11.536;2023-07-09T18:10:28;32.65;36.25
51878;SHT31;37911;51.526;11.536;2023-07-09T18:13:32;32.52;37.75
51878;SHT31;37911;51.526;11.536;2023-07-09T18:16:36;32.38;37.91
51878;SHT31;37911;51.526;11.536;2023-07-09T18:19:40;32.25;38.53
51878;SHT31;37911;51.526;11.536;2023-07-09T18:22:43;32.16;38.83
51878;SHT31;37911;51.526;11.536;2023-07-09T18:25:50;32.02;40.41
51878;SHT31;37911;51.526;11.536;2023-07-09T18:28:53;31.71;41.30
51878;SHT31;37911;51.526;11.536;2023-07-09T18:31:57;31.50;41.41
51878;SHT31;37911;51.526;11.536;2023-07-09T18:35:16;31.27;41.27
51878;SHT31;37911;51.526;11.536;2023-07-09T18:38:21;31.10;41.89
51878;SHT31;37911;51.526;11.536;2023-07-09T18:41:27;30.99;42.61
51878;SHT31;37911;51.526;11.536;2023-07-09T18:44:30;30.76;42.39
51878;SHT31;37911;51.526;11.536;2023-07-09T18:47:34;30.69;42.54
51878;SHT31;37911;51.526;11.536;2023-07-09T18:50:37;30.55;42.28
51878;SHT31;37911;51.526;11.536;2023-07-09T18:53:42;30.46;42.64
51878;SHT31;37911;51.526;11.536;2023-07-09T18:56:48;30.32;42.86
51878;SHT31;37911;51.526;11.536;2023-07-09T18:59:51;30.21;44.07
51878;SHT31;37911;51.526;11.536;2023-07-09T19:02:55;30.08;45.01
51878;SHT31;37911;51.526;11.536;2023-07-09T19:05:58;30.00;45.20
51878;SHT31;37911;51.526;11.536;2023-07-09T19:09:04;29.87;45.55
51878;SHT31;37911;51.526;11.536;2023-07-09T19:12:13;29.73;45.95
51878;SHT31;37911;51.526;11.536;2023-07-09T19:15:19;29.53;46.14